sensor_id;sensor_type;location;lat;lon;timestamp;pressure;altitude;pressure_sealevel;temperature;humidity
79142;BME280;68550;-26.480;29.232;2023-03-11T18:47:23;84167.02;;;28.82;27.13
79142;BME280;68550;-26.480;29.232;2023-03-11T18:49:48;84167.58;;;28.61;27.45
79142;BME280;68550;-26.480;29.232;2023-03-11T18:52:13;84168.45;;;28.33;28.10
79142;BME280;68550;-26.480;29.232;2023-03-11T18:54:39;84167.80;;;28.44;28.26
79142;BME280;68550;-26.480;29.232;2023-03-11T18:57:04;84169.36;;;28.14;28.40
79142;BME280;68550;-26.480;29.232;2023-03-11T18:59:28;84172.71;;;28.05;28.42
79142;BME280;68550;-26.480;29.232;2023-03-11T19:01:54;84177.05;;;28.06;28.46
79142;BME280;68550;-26.480;29.232;2023-03-11T19:04:19;84181.69;;;27.56;28.49
79142;BME280;68550;-26.480;29.232;2023-03-11T19:06:44;84187.06;;;27.69;28.55
79142;BME280;68550;-26.480;29.232;2023-03-11T19:09:09;84188.67;;;27.89;28.37
79142;BME280;68550;-26.480;29.232;2023-03-11T19:11:34;84192.68;;;27.60;28.40
79142;BME280;68550;-26.480;29.232;2023-03-11T19:14:00;84189.53;;;27.59;28.19
79142;BME280;68550;-26.480;29.232;2023-03-11T19:16:26;84191.99;;;27.79;27.96
79142;BME280;68550;-26.480;29.232;2023-03-11T19:18:54;84194.59;;;27.28;28.36
79142;BME280;68550;-26.480;29.232;2023-03-11T19:21:16;84198.46;;;28.51;27.36
79142;BME280;68550;-26.480;29.232;2023-03-11T19:23:41;84197.95;;;28.03;27.52
79142;BME280;68550;-26.480;29.232;2023-03-11T19:26:06;84202.98;;;28.55;27.60
79142;BME280;68550;-26.480;29.232;2023-03-11T19:28:32;84203.81;;;28.55;27.46
79142;BME280;68550;-26.480;29.232;2023-03-11T19:30:57;84205.11;;;28.35;27.92
79142;BME280;68550;-26.480;29.232;2023-03-11T19:33:22;84204.69;;;28.04;27.95
79142;BME280;68550;-26.480;29.232;2023-03-11T19:35:52;84207.66;;;28.33;27.85
79142;BME280;68550;-26.480;29.232;2023-03-11T19:38:13;84208.48;;;27.70;28.01
79142;BME280;68550;-26.480;29.232;2023-03-11T19:40:38;84214.33;;;27.45;27.72
79142;BME280;68550;-26.480;29.232;2023-03-11T19:43:05;84220.29;;;27.91;27.00
79142;BME280;68550;-26.480;29.232;2023-03-11T19:45:28;84223.19;;;28.49;26.65
79142;BME280;68550;-26.480;29.232;2023-03-11T19:47:53;84229.50;;;28.27;26.96
79142;BME280;68550;-26.480;29.232;2023-03-11T19:54:18;84237.47;;;27.63;27.52
79142;BME280;68550;-26.480;29.232;2023-03-11T19:56:40;84239.36;;;27.47;27.58
79142;BME280;68550;-26.480;29.232;2023-03-11T19:59:06;84241.04;;;27.64;27.29
79142;BME280;68550;-26.480;29.232;2023-03-11T20:01:31;84251.22;;;27.93;27.66
79142;BME280;68550;-26.480;29.232;2023-03-11T20:03:56;84255.35;;;28.06;27.16
79142;BME280;68550;-26.480;29.232;2023-03-11T20:06:21;84255.90;;;27.66;27.00
79142;BME280;68550;-26.480;29.232;2023-03-11T20:08:48;84255.40;;;28.46;31.97
79142;BME280;68550;-26.480;29.232;2023-03-11T20:11:12;84257.28;;;30.51;25.95
79142;BME280;68550;-26.480;29.232;2023-03-11T20:13:37;84257.50;;;30.47;26.60
79142;BME280;68550;-26.480;29.232;2023-03-11T20:16:06;84255.66;;;30.37;26.31
79142;BME280;68550;-26.480;29.232;2023-03-11T20:18:28;84253.67;;;30.72;26.00
79142;BME280;68550;-26.480;29.232;2023-03-11T20:20:54;84255.26;;;30.77;25.68
79142;BME280;68550;-26.480;29.232;2023-03-11T20:23:18;84256.27;;;30.76;25.56
79142;BME280;68550;-26.480;29.232;2023-03-11T20:25:43;84259.21;;;30.59;25.50
79142;BME280;68550;-26.480;29.232;2023-03-11T20:28:09;84263.31;;;31.05;25.83
79142;BME280;68550;-26.480;29.232;2023-03-11T20:30:35;84260.44;;;30.63;25.68
79142;BME280;68550;-26.480;29.232;2023-03-11T20:32:58;84253.64;;;30.85;25.38
79142;BME280;68550;-26.480;29.232;2023-03-11T20:35:28;84249.53;;;30.85;25.52
79142;BME280;68550;-26.480;29.232;2023-03-11T20:37:50;84243.88;;;30.82;25.63
79142;BME280;68550;-26.480;29.232;2023-03-11T20:40:16;84244.09;;;31.01;25.57
79142;BME280;68550;-26.480;29.232;2023-03-11T20:42:42;84240.99;;;31.09;25.47
79142;BME280;68550;-26.480;29.232;2023-03-11T20:45:05;84239.84;;;30.67;25.57
79142;BME280;68550;-26.480;29.232;2023-03-11T20:47:31;84243.52;;;30.92;25.60
79142;BME280;68550;-26.480;29.232;2023-03-11T20:49:57;84249.06;;;31.10;25.61
79142;BME280;68550;-26.480;29.232;2023-03-11T20:52:21;84256.78;;;31.09;25.45
79142;BME280;68550;-26.480;29.232;2023-03-11T20:54:46;84258.55;;;30.76;25.51
79142;BME280;68550;-26.480;29.232;2023-03-11T20:57:11;84258.24;;;31.04;25.50
79142;BME280;68550;-26.480;29.232;2023-03-11T20:59:36;84256.54;;;30.85;25.54
79142;BME280;68550;-26.480;29.232;2023-03-11T21:02:02;84255.78;;;31.06;25.26
79142;BME280;68550;-26.480;29.232;2023-03-11T21:04:27;84258.70;;;31.11;25.33
79142;BME280;68550;-26.480;29.232;2023-03-11T21:06:52;84264.93;;;31.17;25.22
79142;BME280;68550;-26.480;29.232;2023-03-11T21:09:19;84272.01;;;31.51;25.23
79142;BME280;68550;-26.480;29.232;2023-03-11T21:11:46;84270.94;;;31.22;25.35
79142;BME280;68550;-26.480;29.232;2023-03-11T21:14:09;84268.56;;;31.46;25.42
79142;BME280;68550;-26.480;29.232;2023-03-11T21:16:38;84270.50;;;31.23;25.48
79142;BME280;68550;-26.480;29.232;2023-03-11T21:19:00;84272.60;;;31.19;25.49
79142;BME280;68550;-26.480;29.232;2023-03-11T21:21:25;84271.92;;;31.40;25.50
79142;BME280;68550;-26.480;29.232;2023-03-11T21:23:50;84274.50;;;31.36;25.53
79142;BME280;68550;-26.480;29.232;2023-03-11T21:26:16;84276.45;;;31.06;25.62
79142;BME280;68550;-26.480;29.232;2023-03-11T21:28:41;84276.08;;;31.07;25.58
79142;BME280;68550;-26.480;29.232;2023-03-11T21:31:07;84280.66;;;31.04;25.64
79142;BME280;68550;-26.480;29.232;2023-03-11T21:33:32;84295.39;;;31.31;25.65
79142;BME280;68550;-26.480;29.232;2023-03-11T21:36:00;84300.61;;;31.32;25.86
79142;BME280;68550;-26.480;29.232;2023-03-11T21:38:23;84295.98;;;31.05;25.87
79142;BME280;68550;-26.480;29.232;2023-03-11T21:40:48;84303.67;;;31.49;25.82
79142;BME280;68550;-26.480;29.232;2023-03-11T21:43:13;84304.17;;;31.49;25.83
79142;BME280;68550;-26.480;29.232;2023-03-11T21:45:39;84297.13;;;30.99;25.80
79142;BME280;68550;-26.480;29.232;2023-03-11T21:48:03;84296.24;;;31.18;25.78
79142;BME280;68550;-26.480;29.232;2023-03-11T21:50:28;84298.03;;;31.21;25.84
79142;BME280;68550;-26.480;29.232;2023-03-11T21:52:53;84300.86;;;30.96;25.79
79142;BME280;68550;-26.480;29.232;2023-03-11T21:55:21;84304.00;;;31.41;25.76
79142;BME280;68550;-26.480;29.232;2023-03-11T21:57:44;84294.20;;;31.30;25.86
79142;BME280;68550;-26.480;29.232;2023-03-11T22:00:10;84288.04;;;31.14;25.81
79142;BME280;68550;-26.480;29.232;2023-03-11T22:02:34;84291.29;;;31.16;25.79
79142;BME280;68550;-26.480;29.232;2023-03-11T22:05:00;84297.26;;;31.02;25.93
79142;BME280;68550;-26.480;29.232;2023-03-11T22:07:27;84307.29;;;31.08;25.92
79142;BME280;68550;-26.480;29.232;2023-03-11T22:09:51;84296.45;;;31.02;25.96
79142;BME280;68550;-26.480;29.232;2023-03-11T22:12:16;84301.45;;;30.66;26.07
79142;BME280;68550;-26.480;29.232;2023-03-11T22:14:41;84304.70;;;31.28;25.95
79142;BME280;68550;-26.480;29.232;2023-03-11T22:17:06;84300.72;;;31.06;26.16
79142;BME280;68550;-26.480;29.232;2023-03-11T22:19:32;84297.19;;;30.96;26.02
79142;BME280;68550;-26.480;29.232;2023-03-11T22:21:57;84297.24;;;31.23;26.02
79142;BME280;68550;-26.480;29.232;2023-03-11T22:24:22;84294.85;;;31.03;26.01
79142;BME280;68550;-26.480;29.232;2023-03-11T22:26:48;84296.97;;;31.02;26.02
79142;BME280;68550;-26.480;29.232;2023-03-11T22:29:13;84293.15;;;31.23;26.08
79142;BME280;68550;-26.480;29.232;2023-03-11T22:31:42;84294.06;;;30.99;26.07
79142;BME280;68550;-26.480;29.232;2023-03-11T22:34:04;84301.77;;;30.80;26.33
79142;BME280;68550;-26.480;29.232;2023-03-11T22:36:30;84307.49;;;30.84;26.35
79142;BME280;68550;-26.480;29.232;2023-03-11T22:38:54;84304.42;;;31.01;26.13
79142;BME280;68550;-26.480;29.232;2023-03-11T22:41:20;84301.62;;;31.09;26.19
79142;BME280;68550;-26.480;29.232;2023-03-11T22:43:48;84303.58;;;31.17;26.02
79142;BME280;68550;-26.480;29.232;2023-03-11T22:46:13;84303.24;;;31.08;26.10
79142;BME280;68550;-26.480;29.232;2023-03-11T22:48:36;84304.51;;;30.95;25.97
79142;BME280;68550;-26.480;29.232;2023-03-11T22:51:00;84301.07;;;30.98;26.07
79142;BME280;68550;-26.480;29.232;2023-03-11T22:53:26;84298.25;;;30.86;25.94
79142;BME280;68550;-26.480;29.232;2023-03-11T22:55:51;84296.95;;;31.04;25.98
79142;BME280;68550;-26.480;29.232;2023-03-11T22:58:19;84296.78;;;30.97;26.07
79142;BME280;68550;-26.480;29.232;2023-03-11T23:00:42;84300.61;;;30.87;25.82
79142;BME280;68550;-26.480;29.232;2023-03-11T23:03:08;84303.77;;;30.95;25.80
79142;BME280;68550;-26.480;29.232;2023-03-11T23:05:33;84303.04;;;31.06;25.61
79142;BME280;68550;-26.480;29.232;2023-03-11T23:07:58;84300.07;;;30.99;25.77
79142;BME280;68550;-26.480;29.232;2023-03-11T23:10:23;84301.65;;;30.76;25.66
79142;BME280;68550;-26.480;29.232;2023-03-11T23:12:49;84302.06;;;30.78;25.56
79142;BME280;68550;-26.480;29.232;2023-03-11T23:15:17;84305.12;;;30.71;25.63
79142;BME280;68550;-26.480;29.232;2023-03-11T23:17:39;84302.94;;;30.88;25.79
79142;BME280;68550;-26.480;29.232;2023-03-11T23:20:06;84300.22;;;30.53;25.97
79142;BME280;68550;-26.480;29.232;2023-03-11T23:22:33;84300.46;;;30.56;25.85
79142;BME280;68550;-26.480;29.232;2023-03-11T23:24:55;84299.47;;;30.91;25.71
79142;BME280;68550;-26.480;29.232;2023-03-11T23:27:22;84296.41;;;30.92;25.70
79142;BME280;68550;-26.480;29.232;2023-03-11T23:29:46;84294.35;;;30.90;25.69
79142;BME280;68550;-26.480;29.232;2023-03-11T23:32:11;84291.07;;;30.52;26.19
79142;BME280;68550;-26.480;29.232;2023-03-11T23:34:37;84287.35;;;30.77;25.84
79142;BME280;68550;-26.480;29.232;2023-03-11T23:37:02;84281.64;;;30.58;25.61
79142;BME280;68550;-26.480;29.232;2023-03-11T23:39:28;84283.40;;;30.81;25.57
79142;BME280;68550;-26.480;29.232;2023-03-11T23:41:52;84274.63;;;30.75;25.36
79142;BME280;68550;-26.480;29.232;2023-03-11T23:44:19;84279.43;;;30.70;25.28
79142;BME280;68550;-26.480;29.232;2023-03-11T23:46:43;84283.01;;;30.68;25.26
79142;BME280;68550;-26.480;29.232;2023-03-11T23:49:08;84283.07;;;30.69;25.22
79142;BME280;68550;-26.480;29.232;2023-03-11T23:51:35;84286.25;;;30.50;25.37
79142;BME280;68550;-26.480;29.232;2023-03-11T23:54:01;84283.85;;;30.63;24.95
79142;BME280;68550;-26.480;29.232;2023-03-11T23:56:24;84286.53;;;30.37;24.79
79142;BME280;68550;-26.480;29.232;2023-03-11T23:58:49;84291.59;;;30.22;24.88
